createdAt,value
2023-02-01T00:02:40.120Z,97928.92
2023-02-01T00:05:41.435Z,97927.40
2023-02-01T00:08:42.853Z,97922.58
2023-02-01T00:11:44.363Z,97924.88
2023-02-01T00:14:47.583Z,97919.40
2023-02-01T00:17:55.012Z,97914.13
2023-02-01T00:20:56.458Z,97909.50
2023-02-01T00:23:57.847Z,97904.48
2023-02-01T00:26:59.327Z,97902.20
2023-02-01T00:30:00.718Z,97896.89
2023-02-01T00:33:02.119Z,97886.39
2023-02-01T00:36:06.903Z,97891.89
2023-02-01T00:39:08.974Z,97900.00
2023-02-01T00:42:10.490Z,97898.60
2023-02-01T00:45:11.906Z,97905.95
2023-02-01T00:48:13.653Z,97901.77
2023-02-01T00:51:17.410Z,97903.73
2023-02-01T00:54:18.915Z,97899.38
2023-02-01T00:57:20.419Z,97902.63
2023-02-01T01:00:22.589Z,97906.38
2023-02-01T01:03:24.449Z,97910.58
2023-02-01T01:06:28.628Z,97908.43
2023-02-01T01:09:30.086Z,97911.71
2023-02-01T01:12:31.543Z,97911.30
2023-02-01T01:15:40.043Z,97894.60
2023-02-01T01:18:42.183Z,97878.49
2023-02-01T01:21:43.579Z,97880.31
2023-02-01T01:24:44.958Z,97878.41
2023-02-01T01:27:46.436Z,97868.56
2023-02-01T01:30:47.997Z,97871.41
2023-02-01T01:33:54.580Z,97870.30
2023-02-01T01:36:55.982Z,97859.56
2023-02-01T01:39:57.807Z,97854.20
2023-02-01T01:42:59.256Z,97853.23
2023-02-01T01:46:00.748Z,97845.23
2023-02-01T01:49:19.566Z,97834.61
2023-02-01T01:52:21.447Z,97821.14
2023-02-01T01:55:26.093Z,97849.81
2023-02-01T01:58:33.330Z,97841.66
2023-02-01T02:01:35.585Z,97849.80
2023-02-01T02:04:37.285Z,97842.95
2023-02-01T02:07:43.851Z,97831.30
2023-02-01T02:11:00.546Z,97835.73
2023-02-01T02:14:05.445Z,97852.41
2023-02-01T02:17:06.872Z,97863.39
2023-02-01T02:20:30.220Z,97862.44
2023-02-01T02:24:19.675Z,97862.29
2023-02-01T02:27:36.286Z,97872.79
2023-02-01T02:30:54.467Z,97857.58
2023-02-01T02:34:04.987Z,97860.58
2023-02-01T02:37:16.663Z,97864.75
2023-02-01T02:40:28.327Z,97862.96
2023-02-01T02:44:06.947Z,97857.96
2023-02-01T02:47:25.360Z,97849.60
2023-02-01T02:50:52.908Z,97855.66
2023-02-01T02:54:34.875Z,97865.92
2023-02-01T02:58:01.202Z,97867.34
2023-02-01T03:01:23.038Z,97860.59
2023-02-01T03:04:26.007Z,97861.91
2023-02-01T03:07:54.163Z,97861.14
2023-02-01T03:10:58.355Z,97867.44
2023-02-01T03:14:03.164Z,97861.88
2023-02-01T03:17:13.583Z,97859.65
2023-02-01T03:20:20.335Z,97864.27
2023-02-01T03:23:26.299Z,97864.48
2023-02-01T03:26:31.087Z,97853.20
2023-02-01T03:29:48.303Z,97848.83
2023-02-01T03:33:00.214Z,97850.44
2023-02-01T03:36:10.356Z,97861.36
2023-02-01T03:39:30.189Z,97864.32
2023-02-01T03:42:37.888Z,97856.31
2023-02-01T03:45:55.737Z,97855.65
2023-02-01T03:48:57.485Z,97851.27
2023-02-01T03:52:00.330Z,97868.02
2023-02-01T03:55:02.650Z,97890.17
2023-02-01T03:58:14.307Z,97900.31
2023-02-01T04:01:15.949Z,97910.70
2023-02-01T04:04:20.263Z,97914.75
2023-02-01T04:07:22.849Z,97914.77
2023-02-01T04:10:25.325Z,97919.84
2023-02-01T04:13:27.075Z,97919.70
2023-02-01T04:16:28.493Z,97913.36
2023-02-01T04:19:29.872Z,97920.02
2023-02-01T04:22:31.267Z,97921.98
2023-02-01T04:25:32.650Z,97922.42
2023-02-01T04:28:34.092Z,97915.44
2023-02-01T04:31:36.801Z,97912.12
2023-02-01T04:34:38.297Z,97907.83
2023-02-01T04:37:39.633Z,97912.20
2023-02-01T04:40:41.099Z,97915.73
2023-02-01T04:43:42.864Z,97913.64
2023-02-01T04:46:45.572Z,97911.29
2023-02-01T04:49:46.971Z,97917.05
2023-02-01T04:52:48.363Z,97923.41
2023-02-01T04:55:50.459Z,97925.08
2023-02-01T04:58:51.910Z,97929.14
2023-02-01T05:01:53.458Z,97927.77
2023-02-01T05:04:56.203Z,97930.88
2023-02-01T05:07:57.753Z,97924.91
2023-02-01T05:10:59.355Z,97916.26
2023-02-01T05:14:02.560Z,97923.97
2023-02-01T05:17:04.122Z,97926.27
2023-02-01T05:20:06.849Z,97925.84
2023-02-01T05:23:08.260Z,97936.09
2023-02-01T05:26:09.784Z,97938.02
2023-02-01T05:29:11.999Z,97937.37
2023-02-01T05:32:22.161Z,97931.27
2023-02-01T05:35:24.269Z,97939.68
2023-02-01T05:38:26.182Z,97939.70
2023-02-01T05:41:27.581Z,97937.44
2023-02-01T05:44:29.147Z,97945.07
2023-02-01T05:47:30.536Z,97945.23
2023-02-01T05:50:31.951Z,97953.55
2023-02-01T05:53:33.441Z,97964.13
2023-02-01T05:56:34.831Z,97965.23
2023-02-01T05:59:41.239Z,97965.96
2023-02-01T06:02:42.837Z,97963.19
2023-02-01T06:05:45.492Z,97974.36
2023-02-01T06:08:46.949Z,97976.81
2023-02-01T06:11:48.361Z,97980.88
2023-02-01T06:14:49.702Z,97984.23
2023-02-01T06:17:51.095Z,97988.19
2023-02-01T06:20:57.345Z,97991.30
2023-02-01T06:23:59.280Z,97994.98
2023-02-01T06:27:00.678Z,97993.33
2023-02-01T06:30:03.810Z,97982.66
2023-02-01T06:33:05.682Z,97984.02
2023-02-01T06:36:10.169Z,97983.34
2023-02-01T06:39:16.109Z,97983.30
2023-02-01T06:42:17.809Z,97982.52
2023-02-01T06:45:19.217Z,97978.77
2023-02-01T06:48:20.564Z,97977.63
2023-02-01T06:51:25.675Z,97972.14
2023-02-01T06:54:28.650Z,97977.35
2023-02-01T06:57:31.118Z,97983.38
2023-02-01T07:00:32.556Z,97979.81
2023-02-01T07:03:35.005Z,97987.61
2023-02-01T07:06:36.331Z,97994.41
2023-02-01T07:09:37.836Z,97988.05
2023-02-01T07:12:39.899Z,97981.55
2023-02-01T07:15:41.419Z,97979.89
2023-02-01T07:18:43.317Z,97967.18
2023-02-01T07:21:44.789Z,97960.91
2023-02-01T07:24:46.178Z,97972.98
2023-02-01T07:27:47.632Z,97982.60
2023-02-01T07:30:51.290Z,97984.77
2023-02-01T07:33:52.993Z,97984.85
2023-02-01T07:36:54.678Z,97988.55
2023-02-01T07:39:56.120Z,97988.22
2023-02-01T07:42:57.670Z,97991.30
2023-02-01T07:45:59.895Z,97995.25
2023-02-01T07:49:01.367Z,97999.83
2023-02-01T07:52:02.861Z,98007.36
2023-02-01T07:55:04.714Z,98006.11
2023-02-01T07:58:06.171Z,97998.23
2023-02-01T08:01:20.628Z,98007.10
2023-02-01T08:04:22.146Z,98013.42
2023-02-01T08:07:23.614Z,98002.63
2023-02-01T08:10:25.578Z,98002.02
2023-02-01T08:13:27.523Z,98006.35
2023-02-01T08:16:29.018Z,98012.84
2023-02-01T08:19:30.373Z,98014.10
2023-02-01T08:22:32.781Z,98010.00
2023-02-01T08:25:35.242Z,98002.63
2023-02-01T08:28:38.104Z,97995.45
2023-02-01T08:31:41.194Z,97991.77
2023-02-01T08:34:42.597Z,97991.39
2023-02-01T08:37:44.036Z,97981.94
2023-02-01T08:40:46.661Z,97973.34
2023-02-01T08:43:48.312Z,97982.20
2023-02-01T08:46:49.715Z,97981.57
2023-02-01T08:49:52.109Z,97989.88
2023-02-01T08:52:54.106Z,97997.76
2023-02-01T08:55:55.522Z,97999.91
2023-02-01T08:58:56.896Z,98005.58
2023-02-01T09:01:58.509Z,98008.25
2023-02-01T09:04:59.968Z,98001.48
2023-02-01T09:08:01.417Z,98009.05
2023-02-01T09:11:08.211Z,98012.50
2023-02-01T09:14:09.567Z,98014.55
2023-02-01T09:17:11.043Z,98017.38
2023-02-01T09:20:12.957Z,98024.64
2023-02-01T09:23:14.614Z,98024.42
2023-02-01T09:26:19.602Z,98021.89
2023-02-01T09:29:21.528Z,98023.83
2023-02-01T09:32:24.417Z,98017.70
2023-02-01T09:35:26.107Z,98014.05
2023-02-01T09:38:28.466Z,98017.73
2023-02-01T09:41:57.495Z,98012.14
2023-02-01T09:45:08.751Z,98001.75
2023-02-01T09:48:17.084Z,97998.33
2023-02-01T09:51:34.457Z,97987.66
2023-02-01T09:54:50.082Z,97981.30
2023-02-01T09:57:58.477Z,97972.60
2023-02-01T10:01:02.236Z,97973.98
2023-02-01T10:04:09.403Z,97959.11
2023-02-01T10:07:15.549Z,97954.97
2023-02-01T10:10:44.319Z,97957.48
2023-02-01T10:13:59.773Z,97961.18
2023-02-01T10:17:23.614Z,97956.49
2023-02-01T10:20:47.601Z,97955.08
2023-02-01T10:24:06.217Z,97954.99
2023-02-01T10:27:23.043Z,97957.10
2023-02-01T10:30:34.667Z,97953.95
2023-02-01T10:33:43.406Z,97946.77
2023-02-01T10:36:57.583Z,97935.46
2023-02-01T10:40:23.205Z,97922.34
2023-02-01T10:43:25.003Z,97919.61
2023-02-01T10:46:27.155Z,97914.93
2023-02-01T10:49:37.232Z,97914.07
2023-02-01T10:53:06.190Z,97905.77
2023-02-01T10:56:10.011Z,97909.27
2023-02-01T10:59:25.347Z,97909.67
2023-02-01T11:02:31.428Z,97913.33
2023-02-01T11:05:45.617Z,97913.52
2023-02-01T11:08:59.866Z,97910.89
2023-02-01T11:12:01.405Z,97906.77
2023-02-01T11:15:11.925Z,97903.00
2023-02-01T11:18:19.353Z,97898.21
2023-02-01T11:21:21.081Z,97896.20
2023-02-01T11:24:24.024Z,97899.35
2023-02-01T11:27:27.971Z,97900.13
2023-02-01T11:30:41.495Z,97893.04
2023-02-01T11:33:49.832Z,97898.34
2023-02-01T11:36:53.409Z,97892.93
2023-02-01T11:40:00.092Z,97888.06
2023-02-01T11:43:25.645Z,97889.27
2023-02-01T11:46:31.276Z,97888.13
2023-02-01T11:49:32.652Z,97889.91
2023-02-01T11:52:41.110Z,97889.39
2023-02-01T11:56:12.885Z,97883.14
2023-02-01T11:59:17.252Z,97890.16
2023-02-01T12:02:27.472Z,97885.02
2023-02-01T12:05:50.933Z,97880.90
2023-02-01T12:09:11.750Z,97888.45
2023-02-01T12:12:32.478Z,97882.45
2023-02-01T12:15:53.722Z,97874.52
2023-02-01T12:19:09.730Z,97874.02
2023-02-01T12:22:32.879Z,97872.33
2023-02-01T12:26:25.615Z,97873.13
2023-02-01T12:29:48.710Z,97866.57
2023-02-01T12:33:22.308Z,97866.91
2023-02-01T12:36:43.650Z,97866.27
2023-02-01T12:39:54.068Z,97865.88
2023-02-01T12:43:25.637Z,97859.91
2023-02-01T12:46:37.285Z,97853.98
2023-02-01T12:49:58.613Z,97854.86
2023-02-01T12:53:30.809Z,97845.02
2023-02-01T12:56:42.197Z,97843.02
2023-02-01T12:59:52.944Z,97837.70
2023-02-01T13:03:11.964Z,97834.92
2023-02-01T13:06:26.667Z,97837.05
2023-02-01T13:09:49.933Z,97837.73
2023-02-01T13:13:02.309Z,97840.05
2023-02-01T13:16:27.311Z,97840.09
2023-02-01T13:19:29.223Z,97835.60
2023-02-01T13:22:35.757Z,97837.06
2023-02-01T13:25:51.716Z,97831.77
2023-02-01T13:29:09.347Z,97834.92
2023-02-01T13:33:51.264Z,97837.77
2023-02-01T13:36:18.926Z,97834.71
2023-02-01T13:39:32.388Z,97832.69
2023-02-01T13:42:51.939Z,97817.50
2023-02-01T13:45:57.961Z,97812.42
2023-02-01T13:49:03.027Z,97809.90
2023-02-01T13:52:05.428Z,97807.44
2023-02-01T13:55:22.732Z,97808.00
2023-02-01T13:58:34.424Z,97811.17
2023-02-01T14:01:36.345Z,97801.88
2023-02-01T14:04:50.005Z,97799.08
2023-02-01T14:08:07.028Z,97800.50
2023-02-01T14:11:36.041Z,97802.38
2023-02-01T14:14:39.743Z,97801.29
2023-02-01T14:17:41.576Z,97801.55
2023-02-01T14:20:46.539Z,97798.63
2023-02-01T14:24:08.369Z,97795.08
2023-02-01T14:27:12.929Z,97785.23
2023-02-01T14:30:16.946Z,97788.05
2023-02-01T14:33:22.160Z,97782.46
2023-02-01T14:36:24.420Z,97781.66
2023-02-01T14:39:35.011Z,97778.80
2023-02-01T14:42:47.896Z,97772.90
2023-02-01T14:45:51.126Z,97771.11
2023-02-01T14:48:53.591Z,97771.77
2023-02-01T14:51:57.199Z,97764.53
2023-02-01T14:55:05.878Z,97758.42
2023-02-01T14:58:46.227Z,97752.67
2023-02-01T15:01:52.452Z,97754.41
2023-02-01T15:04:56.354Z,97753.25
2023-02-01T15:08:05.280Z,97753.55
2023-02-01T15:11:16.891Z,97756.41
2023-02-01T15:14:18.285Z,97759.44
2023-02-01T15:17:25.800Z,97759.73
2023-02-01T15:20:29.366Z,97757.88
2023-02-01T15:23:33.535Z,97761.36
2023-02-01T15:26:34.916Z,97764.27
2023-02-01T15:29:36.434Z,97762.80
2023-02-01T15:32:39.951Z,97760.92
2023-02-01T15:35:44.820Z,97761.59
2023-02-01T15:38:46.225Z,97759.30
2023-02-01T15:41:54.575Z,97770.92
2023-02-01T15:44:55.971Z,97766.96
2023-02-01T15:47:59.120Z,97757.60
2023-02-01T15:51:01.666Z,97756.86
2023-02-01T15:54:08.274Z,97753.08
2023-02-01T15:57:10.103Z,97766.62
2023-02-01T16:00:35.252Z,97771.41
2023-02-01T16:03:43.566Z,97767.30
2023-02-01T16:06:48.626Z,97773.56
2023-02-01T16:09:54.866Z,97768.84
2023-02-01T16:13:00.480Z,97772.61
2023-02-01T16:16:04.180Z,97766.81
2023-02-01T16:19:05.550Z,97765.57
2023-02-01T16:22:06.933Z,97759.00
2023-02-01T16:25:08.680Z,97756.24
2023-02-01T16:28:10.099Z,97755.52
2023-02-01T16:31:20.893Z,97768.93
2023-02-01T16:34:22.565Z,97767.70
2023-02-01T16:37:25.719Z,97775.61
2023-02-01T16:40:27.124Z,97777.42
2023-02-01T16:43:28.582Z,97777.71
2023-02-01T16:46:35.111Z,97770.13
2023-02-01T16:49:36.985Z,97764.95
2023-02-01T16:52:38.661Z,97774.21
2023-02-01T16:55:41.021Z,97782.11
2023-02-01T16:58:43.331Z,97786.35
2023-02-01T17:01:44.837Z,97790.79
2023-02-01T17:04:48.965Z,97798.67
2023-02-01T17:07:50.885Z,97814.41
2023-02-01T17:10:52.315Z,97810.60
2023-02-01T17:13:54.020Z,97808.97
2023-02-01T17:16:55.772Z,97802.03
2023-02-01T17:19:57.458Z,97800.63
2023-02-01T17:22:59.735Z,97796.02
2023-02-01T17:26:02.775Z,97800.63
2023-02-01T17:29:04.158Z,97797.65
2023-02-01T17:32:06.721Z,97804.42
2023-02-01T17:35:20.841Z,97797.83
2023-02-01T17:38:24.283Z,97791.13
2023-02-01T17:41:25.774Z,97797.27
2023-02-01T17:44:27.951Z,97801.55
2023-02-01T17:47:29.326Z,97792.64
2023-02-01T17:50:33.131Z,97802.90
2023-02-01T17:53:35.139Z,97808.59
2023-02-01T17:56:36.550Z,97800.94
2023-02-01T17:59:37.945Z,97807.56
2023-02-01T18:02:39.410Z,97810.89
2023-02-01T18:05:44.034Z,97819.52
2023-02-01T18:08:45.712Z,97826.38
2023-02-01T18:11:49.792Z,97821.63
2023-02-01T18:14:51.233Z,97826.13
2023-02-01T18:17:53.106Z,97828.50
2023-02-01T18:20:54.662Z,97829.21
2023-02-01T18:23:56.170Z,97825.56
2023-02-01T18:26:58.887Z,97827.23
2023-02-01T18:30:00.526Z,97825.50
2023-02-01T18:33:02.009Z,97827.80
2023-02-01T18:36:03.484Z,97833.34
2023-02-01T18:39:04.947Z,97827.73
2023-02-01T18:42:09.703Z,97841.06
2023-02-01T18:45:22.574Z,97842.52
2023-02-01T18:48:24.469Z,97847.39
2023-02-01T18:51:25.918Z,97849.13
2023-02-01T18:54:27.671Z,97853.65
2023-02-01T18:57:29.123Z,97858.82
2023-02-01T19:00:30.627Z,97851.48
2023-02-01T19:03:32.118Z,97854.39
2023-02-01T19:06:34.144Z,97861.41
2023-02-01T19:09:35.915Z,97865.64
2023-02-01T19:12:38.419Z,97866.14
2023-02-01T19:15:41.595Z,97860.90
2023-02-01T19:18:44.159Z,97869.34
2023-02-01T19:21:45.785Z,97861.45
2023-02-01T19:24:47.349Z,97855.27
2023-02-01T19:27:49.989Z,97841.56
2023-02-01T19:31:04.161Z,97829.05
2023-02-01T19:34:05.682Z,97840.88
2023-02-01T19:37:08.113Z,97838.13
2023-02-01T19:40:12.018Z,97844.96
2023-02-01T19:43:13.413Z,97853.96
2023-02-01T19:46:14.933Z,97859.01
2023-02-01T19:49:16.641Z,97852.08
2023-02-01T19:52:18.150Z,97851.11
2023-02-01T19:55:20.150Z,97841.73
2023-02-01T19:58:21.631Z,97835.27
2023-02-01T20:01:22.129Z,97827.88
2023-02-01T20:04:23.952Z,97819.42
2023-02-01T20:07:25.281Z,97822.04
2023-02-01T20:10:26.757Z,97822.59
2023-02-01T20:13:28.288Z,97821.29
2023-02-01T20:16:29.662Z,97820.25
2023-02-01T20:19:31.724Z,97818.71
2023-02-01T20:22:33.074Z,97817.92
2023-02-01T20:25:36.592Z,97817.99
2023-02-01T20:28:38.145Z,97815.21
2023-02-01T20:31:39.693Z,97809.70
2023-02-01T20:34:41.166Z,97807.55
2023-02-01T20:37:42.651Z,97802.59
2023-02-01T20:40:44.050Z,97802.86
2023-02-01T20:43:46.363Z,97802.83
2023-02-01T20:46:47.931Z,97800.70
2023-02-01T20:49:49.289Z,97797.42
2023-02-01T20:52:50.678Z,97799.73
2023-02-01T20:55:54.263Z,97799.23
2023-02-01T20:59:02.331Z,97797.14
2023-02-01T21:02:04.074Z,97791.73
2023-02-01T21:05:05.965Z,97792.02
2023-02-01T21:08:09.839Z,97786.45
2023-02-01T21:11:13.465Z,97781.92
2023-02-01T21:14:15.100Z,97781.93
2023-02-01T21:17:16.434Z,97778.73
2023-02-01T21:20:18.300Z,97780.44
2023-02-01T21:23:19.847Z,97773.17
2023-02-01T21:26:23.609Z,97774.02
2023-02-01T21:29:25.069Z,97777.07
2023-02-01T21:32:26.555Z,97776.84
2023-02-01T21:35:29.021Z,97768.00
2023-02-01T21:38:30.441Z,97769.64
2023-02-01T21:41:51.738Z,97766.81
2023-02-01T21:44:54.403Z,97767.38
2023-02-01T21:47:56.744Z,97760.67
2023-02-01T21:50:58.132Z,97766.57
2023-02-01T21:53:59.544Z,97767.38
2023-02-01T21:57:01.109Z,97759.17
2023-02-01T22:00:04.910Z,97760.33
2023-02-01T22:03:06.192Z,97762.11
2023-02-01T22:06:07.743Z,97759.85
2023-02-01T22:09:22.118Z,97764.92
2023-02-01T22:12:23.584Z,97762.07
2023-02-01T22:15:28.443Z,97758.03
2023-02-01T22:18:30.425Z,97757.06
2023-02-01T22:21:32.157Z,97741.81
2023-02-01T22:24:35.396Z,97736.12
2023-02-01T22:28:32.666Z,97730.29
2023-02-01T22:31:05.150Z,97724.59
2023-02-01T22:34:08.520Z,97732.96
2023-02-01T22:37:11.251Z,97722.98
2023-02-01T22:40:13.698Z,97717.35
2023-02-01T22:43:15.046Z,97714.10
2023-02-01T22:46:19.650Z,97716.77
2023-02-01T22:49:21.279Z,97712.48
2023-02-01T22:52:22.871Z,97713.41
2023-02-01T22:55:24.815Z,97712.01
2023-02-01T22:58:26.923Z,97704.72
2023-02-01T23:01:28.941Z,97700.48
2023-02-01T23:04:30.512Z,97696.68
2023-02-01T23:07:31.989Z,97701.74
2023-02-01T23:10:33.526Z,97696.05
2023-02-01T23:13:36.259Z,97693.17
2023-02-01T23:16:38.537Z,97684.92
2023-02-01T23:19:39.950Z,97680.66
2023-02-01T23:22:47.513Z,97673.05
2023-02-01T23:25:50.594Z,97667.34
2023-02-01T23:28:54.438Z,97673.58
2023-02-01T23:31:55.870Z,97663.86
2023-02-01T23:34:57.381Z,97653.12
2023-02-01T23:37:58.954Z,97643.48
2023-02-01T23:41:07.087Z,97647.70
2023-02-01T23:44:08.735Z,97647.35
2023-02-01T23:47:11.318Z,97651.69
2023-02-01T23:50:12.719Z,97661.98
2023-02-01T23:53:14.127Z,97663.67
2023-02-01T23:56:33.081Z,97662.11
2023-02-01T23:59:34.680Z,97663.30
